sensor_id;sensor_type;location;lat;lon;timestamp;pressure;altitude;pressure_sealevel;temperature;humidity
62402;BME280;48440;51.224;22.506;2023-05-15T00:00:19;98911.59;;;16.48;43.15
62402;BME280;48440;51.224;22.506;2023-05-15T00:02:44;98906.44;;;16.47;42.96
62402;BME280;48440;51.224;22.506;2023-05-15T00:05:10;98905.91;;;16.45;43.61
62402;BME280;48440;51.224;22.506;2023-05-15T00:07:38;98907.03;;;16.44;43.33
62402;BME280;48440;51.224;22.506;2023-05-15T00:10:06;98913.09;;;16.41;43.35
62402;BME280;48440;51.224;22.506;2023-05-15T00:12:32;98907.25;;;16.34;43.63
62402;BME280;48440;51.224;22.506;2023-05-15T00:15:01;98906.94;;;16.35;43.59
62402;BME280;48440;51.224;22.506;2023-05-15T00:17:27;98912.91;;;16.37;43.58
62402;BME280;48440;51.224;22.506;2023-05-15T00:19:53;98911.31;;;16.36;43.48
62402;BME280;48440;51.224;22.506;2023-05-15T00:22:24;98917.25;;;16.38;43.55
62402;BME280;48440;51.224;22.506;2023-05-15T00:24:50;98894.66;;;16.33;43.52
62402;BME280;48440;51.224;22.506;2023-05-15T00:27:15;98894.44;;;16.29;44.03
62402;BME280;48440;51.224;22.506;2023-05-15T00:29:41;98896.47;;;16.23;43.87
62402;BME280;48440;51.224;22.506;2023-05-15T00:32:07;98885.00;;;16.21;44.09
62402;BME280;48440;51.224;22.506;2023-05-15T00:34:32;98890.56;;;16.16;43.83
62402;BME280;48440;51.224;22.506;2023-05-15T00:36:58;98885.38;;;16.15;44.19
62402;BME280;48440;51.224;22.506;2023-05-15T00:39:24;98888.94;;;16.15;44.09
62402;BME280;48440;51.224;22.506;2023-05-15T00:41:50;98882.66;;;16.15;44.49
62402;BME280;48440;51.224;22.506;2023-05-15T00:44:16;98878.59;;;16.12;44.50
62402;BME280;48440;51.224;22.506;2023-05-15T00:46:45;98872.13;;;16.08;44.71
62402;BME280;48440;51.224;22.506;2023-05-15T00:49:11;98874.56;;;16.10;44.69
62402;BME280;48440;51.224;22.506;2023-05-15T00:51:42;98866.34;;;16.10;44.48
62402;BME280;48440;51.224;22.506;2023-05-15T00:54:08;98858.94;;;16.10;44.77
62402;BME280;48440;51.224;22.506;2023-05-15T00:56:34;98860.88;;;16.10;44.86
62402;BME280;48440;51.224;22.506;2023-05-15T00:59:02;98850.41;;;16.12;44.56
62402;BME280;48440;51.224;22.506;2023-05-15T01:01:28;98844.31;;;16.15;44.58
62402;BME280;48440;51.224;22.506;2023-05-15T01:04:01;98846.56;;;16.13;44.60
62402;BME280;48440;51.224;22.506;2023-05-15T01:06:29;98841.06;;;16.13;44.97
62402;BME280;48440;51.224;22.506;2023-05-15T01:08:56;98839.44;;;16.12;44.60
62402;BME280;48440;51.224;22.506;2023-05-15T01:11:26;98841.06;;;16.13;44.78
62402;BME280;48440;51.224;22.506;2023-05-15T01:13:52;98843.50;;;16.14;44.97
62402;BME280;48440;51.224;22.506;2023-05-15T01:16:20;98841.19;;;16.08;44.92
62402;BME280;48440;51.224;22.506;2023-05-15T01:18:46;98837.84;;;16.11;44.92
62402;BME280;48440;51.224;22.506;2023-05-15T01:24:15;98852.59;;;15.96;45.03
62402;BME280;48440;51.224;22.506;2023-05-15T01:29:29;98841.53;;;15.87;45.31
62402;BME280;48440;51.224;22.506;2023-05-15T01:32:02;98831.91;;;15.90;45.25
62402;BME280;48440;51.224;22.506;2023-05-15T01:34:51;98835.16;;;15.92;45.43
62402;BME280;48440;51.224;22.506;2023-05-15T01:37:24;98834.88;;;15.93;45.54
62402;BME280;48440;51.224;22.506;2023-05-15T01:39:59;98835.16;;;15.92;45.42
62402;BME280;48440;51.224;22.506;2023-05-15T01:42:29;98825.53;;;15.94;45.45
62402;BME280;48440;51.224;22.506;2023-05-15T01:52:27;98818.44;;;15.93;45.65
62402;BME280;48440;51.224;22.506;2023-05-15T01:54:54;98813.50;;;15.95;45.86
62402;BME280;48440;51.224;22.506;2023-05-15T01:57:20;98791.91;;;15.94;46.24
62402;BME280;48440;51.224;22.506;2023-05-15T01:59:46;98777.41;;;15.93;45.61
62402;BME280;48440;51.224;22.506;2023-05-15T02:02:13;98786.50;;;15.89;45.99
62402;BME280;48440;51.224;22.506;2023-05-15T02:04:40;98787.13;;;15.86;45.62
62402;BME280;48440;51.224;22.506;2023-05-15T02:07:06;98780.53;;;15.87;45.88
62402;BME280;48440;51.224;22.506;2023-05-15T02:09:33;98775.06;;;15.87;46.09
62402;BME280;48440;51.224;22.506;2023-05-15T02:12:00;98779.53;;;15.83;46.22
62402;BME280;48440;51.224;22.506;2023-05-15T02:14:28;98766.16;;;15.81;46.26
62402;BME280;48440;51.224;22.506;2023-05-15T02:16:54;98746.59;;;15.74;46.63
62402;BME280;48440;51.224;22.506;2023-05-15T02:19:20;98738.91;;;15.76;46.33
62402;BME280;48440;51.224;22.506;2023-05-15T02:21:45;98728.75;;;15.77;46.12
62402;BME280;48440;51.224;22.506;2023-05-15T02:24:11;98727.44;;;15.74;46.61
62402;BME280;48440;51.224;22.506;2023-05-15T02:29:19;98734.72;;;15.65;46.85
62402;BME280;48440;51.224;22.506;2023-05-15T02:34:38;98726.19;;;15.67;47.03
62402;BME280;48440;51.224;22.506;2023-05-15T02:37:12;98714.53;;;15.61;46.67
62402;BME280;48440;51.224;22.506;2023-05-15T02:39:41;98707.88;;;15.67;46.67
62402;BME280;48440;51.224;22.506;2023-05-15T02:42:08;98703.50;;;15.66;45.99
62402;BME280;48440;51.224;22.506;2023-05-15T02:44:34;98711.22;;;15.64;46.21
62402;BME280;48440;51.224;22.506;2023-05-15T02:47:05;98706.25;;;15.66;46.46
62402;BME280;48440;51.224;22.506;2023-05-15T02:49:31;98699.97;;;15.66;46.44
62402;BME280;48440;51.224;22.506;2023-05-15T02:51:56;98700.38;;;15.59;46.75
62402;BME280;48440;51.224;22.506;2023-05-15T02:54:21;98694.91;;;15.59;46.46
62402;BME280;48440;51.224;22.506;2023-05-15T02:56:48;98701.78;;;15.56;46.60
62402;BME280;48440;51.224;22.506;2023-05-15T02:59:13;98692.25;;;15.54;46.74
62402;BME280;48440;51.224;22.506;2023-05-15T03:01:44;98691.66;;;15.57;46.79
62402;BME280;48440;51.224;22.506;2023-05-15T03:04:09;98698.53;;;15.54;47.32
62402;BME280;48440;51.224;22.506;2023-05-15T03:06:35;98689.81;;;15.52;46.92
62402;BME280;48440;51.224;22.506;2023-05-15T03:09:00;98683.31;;;15.48;47.16
62402;BME280;48440;51.224;22.506;2023-05-15T03:11:26;98682.28;;;15.44;47.66
62402;BME280;48440;51.224;22.506;2023-05-15T03:13:52;98672.16;;;15.45;47.50
62402;BME280;48440;51.224;22.506;2023-05-15T03:16:17;98667.59;;;15.40;47.42
62402;BME280;48440;51.224;22.506;2023-05-15T03:18:43;98658.19;;;15.46;47.60
62402;BME280;48440;51.224;22.506;2023-05-15T03:21:08;98662.34;;;15.44;47.64
62402;BME280;48440;51.224;22.506;2023-05-15T03:23:34;98661.75;;;15.47;47.61
62402;BME280;48440;51.224;22.506;2023-05-15T03:25:59;98668.50;;;15.36;48.21
62402;BME280;48440;51.224;22.506;2023-05-15T03:28:25;98676.09;;;15.39;48.02
62402;BME280;48440;51.224;22.506;2023-05-15T03:30:50;98685.19;;;15.34;48.24
62402;BME280;48440;51.224;22.506;2023-05-15T03:33:16;98689.22;;;15.23;48.45
62402;BME280;48440;51.224;22.506;2023-05-15T03:35:41;98691.44;;;15.21;48.76
62402;BME280;48440;51.224;22.506;2023-05-15T03:38:07;98684.66;;;15.18;48.81
62402;BME280;48440;51.224;22.506;2023-05-15T03:40:32;98670.56;;;15.11;48.68
62402;BME280;48440;51.224;22.506;2023-05-15T03:42:58;98671.50;;;15.07;48.84
62402;BME280;48440;51.224;22.506;2023-05-15T03:45:23;98653.50;;;15.19;49.06
62402;BME280;48440;51.224;22.506;2023-05-15T03:47:49;98650.66;;;15.24;49.28
62402;BME280;48440;51.224;22.506;2023-05-15T03:50:15;98648.84;;;15.34;48.92
62402;BME280;48440;51.224;22.506;2023-05-15T03:52:40;98634.69;;;15.45;48.89
62402;BME280;48440;51.224;22.506;2023-05-15T03:55:06;98637.03;;;15.52;48.62
62402;BME280;48440;51.224;22.506;2023-05-15T03:57:32;98625.09;;;15.61;48.16
62402;BME280;48440;51.224;22.506;2023-05-15T03:59:59;98634.03;;;15.67;48.50
62402;BME280;48440;51.224;22.506;2023-05-15T04:02:28;98634.22;;;15.71;48.28
62402;BME280;48440;51.224;22.506;2023-05-15T04:04:53;98641.63;;;15.56;48.21
62402;BME280;48440;51.224;22.506;2023-05-15T04:07:18;98641.41;;;15.67;48.24
62402;BME280;48440;51.224;22.506;2023-05-15T04:09:44;98651.84;;;15.65;48.21
62402;BME280;48440;51.224;22.506;2023-05-15T04:12:10;98642.75;;;15.69;47.95
62402;BME280;48440;51.224;22.506;2023-05-15T04:14:35;98644.88;;;15.58;48.54
62402;BME280;48440;51.224;22.506;2023-05-15T04:17:01;98651.22;;;15.54;48.54
62402;BME280;48440;51.224;22.506;2023-05-15T04:19:26;98646.66;;;15.49;48.66
62402;BME280;48440;51.224;22.506;2023-05-15T04:21:52;98645.72;;;15.40;49.03
62402;BME280;48440;51.224;22.506;2023-05-15T04:24:17;98639.22;;;15.36;49.17
62402;BME280;48440;51.224;22.506;2023-05-15T04:26:43;98645.81;;;15.35;49.24
62402;BME280;48440;51.224;22.506;2023-05-15T04:29:08;98641.47;;;15.34;49.06
62402;BME280;48440;51.224;22.506;2023-05-15T04:31:34;98624.25;;;15.34;49.44
62402;BME280;48440;51.224;22.506;2023-05-15T04:34:00;98624.47;;;15.37;49.84
62402;BME280;48440;51.224;22.506;2023-05-15T04:36:25;98633.47;;;15.38;49.77
62402;BME280;48440;51.224;22.506;2023-05-15T04:38:51;98625.38;;;15.33;49.31
62402;BME280;48440;51.224;22.506;2023-05-15T04:41:17;98636.81;;;15.35;49.65
62402;BME280;48440;51.224;22.506;2023-05-15T04:43:42;98617.50;;;15.31;49.87
62402;BME280;48440;51.224;22.506;2023-05-15T04:46:08;98617.19;;;15.33;50.00
62402;BME280;48440;51.224;22.506;2023-05-15T04:48:33;98624.88;;;15.31;49.89
62402;BME280;48440;51.224;22.506;2023-05-15T04:50:59;98614.63;;;15.36;49.84
62402;BME280;48440;51.224;22.506;2023-05-15T04:53:25;98608.19;;;15.32;50.10
62402;BME280;48440;51.224;22.506;2023-05-15T04:55:50;98604.72;;;15.26;49.99
62402;BME280;48440;51.224;22.506;2023-05-15T04:58:16;98604.41;;;15.28;50.00
62402;BME280;48440;51.224;22.506;2023-05-15T05:00:41;98609.06;;;15.27;50.24
62402;BME280;48440;51.224;22.506;2023-05-15T05:03:07;98603.09;;;15.25;50.52
62402;BME280;48440;51.224;22.506;2023-05-15T05:05:32;98597.72;;;15.34;50.62
62402;BME280;48440;51.224;22.506;2023-05-15T05:07:57;98616.56;;;15.36;50.41
62402;BME280;48440;51.224;22.506;2023-05-15T05:10:23;98604.13;;;15.30;50.37
62402;BME280;48440;51.224;22.506;2023-05-15T05:12:48;98609.38;;;15.26;50.31
62402;BME280;48440;51.224;22.506;2023-05-15T05:15:14;98606.13;;;15.24;50.31
62402;BME280;48440;51.224;22.506;2023-05-15T05:17:40;98609.69;;;15.24;50.35
62402;BME280;48440;51.224;22.506;2023-05-15T05:20:05;98605.75;;;15.31;50.80
62402;BME280;48440;51.224;22.506;2023-05-15T05:22:33;98608.19;;;15.32;50.67
62402;BME280;48440;51.224;22.506;2023-05-15T05:24:58;98614.25;;;15.29;50.60
62402;BME280;48440;51.224;22.506;2023-05-15T05:27:24;98612.72;;;15.23;51.20
62402;BME280;48440;51.224;22.506;2023-05-15T05:29:50;98616.84;;;15.20;51.42
62402;BME280;48440;51.224;22.506;2023-05-15T05:32:17;98625.06;;;15.20;51.20
62402;BME280;48440;51.224;22.506;2023-05-15T05:34:43;98622.78;;;15.09;51.53
62402;BME280;48440;51.224;22.506;2023-05-15T05:37:08;98617.75;;;15.16;51.27
62402;BME280;48440;51.224;22.506;2023-05-15T05:39:34;98606.31;;;15.14;51.75
62402;BME280;48440;51.224;22.506;2023-05-15T05:41:59;98608.66;;;15.20;51.74
62402;BME280;48440;51.224;22.506;2023-05-15T05:44:25;98608.13;;;15.18;51.81
62402;BME280;48440;51.224;22.506;2023-05-15T05:46:51;98608.06;;;15.23;51.66
62402;BME280;48440;51.224;22.506;2023-05-15T05:49:16;98601.47;;;15.24;51.63
62402;BME280;48440;51.224;22.506;2023-05-15T05:51:44;98605.72;;;15.17;52.07
62402;BME280;48440;51.224;22.506;2023-05-15T05:54:11;98615.75;;;15.21;52.00
62402;BME280;48440;51.224;22.506;2023-05-15T05:56:36;98613.22;;;15.25;52.20
62402;BME280;48440;51.224;22.506;2023-05-15T05:59:02;98612.88;;;15.13;52.60
62402;BME280;48440;51.224;22.506;2023-05-15T06:01:27;98630.09;;;15.13;52.31
62402;BME280;48440;51.224;22.506;2023-05-15T06:03:53;98624.22;;;15.06;52.72
62402;BME280;48440;51.224;22.506;2023-05-15T06:06:20;98617.31;;;15.09;52.74
62402;BME280;48440;51.224;22.506;2023-05-15T06:08:45;98619.25;;;15.08;53.07
62402;BME280;48440;51.224;22.506;2023-05-15T06:11:10;98621.97;;;15.08;53.41
62402;BME280;48440;51.224;22.506;2023-05-15T06:13:36;98629.28;;;15.13;53.39
62402;BME280;48440;51.224;22.506;2023-05-15T06:16:01;98630.50;;;15.07;53.32
62402;BME280;48440;51.224;22.506;2023-05-15T06:18:27;98630.09;;;15.13;53.55
62402;BME280;48440;51.224;22.506;2023-05-15T06:20:52;98635.03;;;15.11;53.32
62402;BME280;48440;51.224;22.506;2023-05-15T06:23:18;98631.41;;;15.16;53.15
62402;BME280;48440;51.224;22.506;2023-05-15T06:25:43;98630.91;;;15.14;53.10
62402;BME280;48440;51.224;22.506;2023-05-15T06:28:09;98630.09;;;15.13;52.77
62402;BME280;48440;51.224;22.506;2023-05-15T06:30:34;98631.09;;;15.04;53.67
62402;BME280;48440;51.224;22.506;2023-05-15T06:33:00;98633.41;;;14.97;53.67
62402;BME280;48440;51.224;22.506;2023-05-15T06:35:27;98626.81;;;14.98;53.52
62402;BME280;48440;51.224;22.506;2023-05-15T06:37:53;98630.38;;;14.98;53.91
62402;BME280;48440;51.224;22.506;2023-05-15T06:40:19;98630.97;;;14.95;53.53
62402;BME280;48440;51.224;22.506;2023-05-15T06:42:45;98626.69;;;14.89;53.73
62402;BME280;48440;51.224;22.506;2023-05-15T06:45:11;98628.97;;;14.82;54.55
62402;BME280;48440;51.224;22.506;2023-05-15T06:47:36;98632.03;;;14.80;55.00
62402;BME280;48440;51.224;22.506;2023-05-15T06:50:03;98634.03;;;14.75;55.56
62402;BME280;48440;51.224;22.506;2023-05-15T06:52:32;98630.88;;;14.68;56.01
62402;BME280;48440;51.224;22.506;2023-05-15T06:54:57;98627.63;;;14.66;56.52
62402;BME280;48440;51.224;22.506;2023-05-15T06:57:23;98629.38;;;14.56;57.12
62402;BME280;48440;51.224;22.506;2023-05-15T06:59:48;98623.00;;;14.47;57.81
62402;BME280;48440;51.224;22.506;2023-05-15T07:02:14;98615.91;;;14.46;58.84
62402;BME280;48440;51.224;22.506;2023-05-15T07:04:39;98621.66;;;14.45;59.47
62402;BME280;48440;51.224;22.506;2023-05-15T07:07:05;98612.66;;;14.44;60.00
62402;BME280;48440;51.224;22.506;2023-05-15T07:09:31;98615.81;;;14.33;60.78
62402;BME280;48440;51.224;22.506;2023-05-15T07:11:56;98606.81;;;14.32;60.84
62402;BME280;48440;51.224;22.506;2023-05-15T07:14:24;98604.00;;;14.37;61.52
62402;BME280;48440;51.224;22.506;2023-05-15T07:16:50;98601.06;;;14.34;62.31
62402;BME280;48440;51.224;22.506;2023-05-15T07:19:18;98604.47;;;14.25;62.17
62402;BME280;48440;51.224;22.506;2023-05-15T07:21:47;98601.44;;;14.27;62.65
62402;BME280;48440;51.224;22.506;2023-05-15T07:24:12;98596.34;;;14.20;63.82
62402;BME280;48440;51.224;22.506;2023-05-15T07:26:43;98602.16;;;14.14;64.98
62402;BME280;48440;51.224;22.506;2023-05-15T07:29:08;98599.00;;;14.07;65.13
62402;BME280;48440;51.224;22.506;2023-05-15T07:31:34;98599.22;;;13.91;65.30
62402;BME280;48440;51.224;22.506;2023-05-15T07:34:00;98603.38;;;13.84;66.39
62402;BME280;48440;51.224;22.506;2023-05-15T07:36:26;98599.78;;;13.88;66.23
62402;BME280;48440;51.224;22.506;2023-05-15T07:38:52;98601.47;;;13.84;66.48
62402;BME280;48440;51.224;22.506;2023-05-15T07:41:17;98597.94;;;13.84;66.75
62402;BME280;48440;51.224;22.506;2023-05-15T07:43:43;98593.06;;;13.81;66.55
62402;BME280;48440;51.224;22.506;2023-05-15T07:46:08;98595.78;;;13.81;67.20
62402;BME280;48440;51.224;22.506;2023-05-15T07:48:33;98602.63;;;13.78;67.59
62402;BME280;48440;51.224;22.506;2023-05-15T07:50:59;98594.97;;;13.80;67.73
62402;BME280;48440;51.224;22.506;2023-05-15T07:53:24;98597.78;;;13.75;68.09
62402;BME280;48440;51.224;22.506;2023-05-15T07:55:50;98595.13;;;13.70;68.28
62402;BME280;48440;51.224;22.506;2023-05-15T07:58:16;98589.09;;;13.73;68.65
62402;BME280;48440;51.224;22.506;2023-05-15T08:00:41;98582.03;;;13.91;67.80
62402;BME280;48440;51.224;22.506;2023-05-15T08:03:07;98589.91;;;13.92;67.28
62402;BME280;48440;51.224;22.506;2023-05-15T08:05:32;98579.00;;;13.92;68.04
62402;BME280;48440;51.224;22.506;2023-05-15T08:07:59;98587.78;;;13.89;68.51
62402;BME280;48440;51.224;22.506;2023-05-15T08:10:24;98592.06;;;13.96;68.32
62402;BME280;48440;51.224;22.506;2023-05-15T08:12:50;98590.38;;;14.00;68.34
62402;BME280;48440;51.224;22.506;2023-05-15T08:15:16;98583.38;;;13.93;68.74
62402;BME280;48440;51.224;22.506;2023-05-15T08:17:41;98580.69;;;13.88;68.87
62402;BME280;48440;51.224;22.506;2023-05-15T08:20:07;98577.38;;;13.91;69.33
62402;BME280;48440;51.224;22.506;2023-05-15T08:22:33;98579.06;;;13.87;69.49
62402;BME280;48440;51.224;22.506;2023-05-15T08:24:59;98574.72;;;13.86;69.31
62402;BME280;48440;51.224;22.506;2023-05-15T08:27:25;98579.06;;;13.87;68.99
62402;BME280;48440;51.224;22.506;2023-05-15T08:29:50;98572.00;;;13.86;70.03
62402;BME280;48440;51.224;22.506;2023-05-15T08:32:17;98562.34;;;13.94;70.53
62402;BME280;48440;51.224;22.506;2023-05-15T08:34:43;98574.88;;;13.95;70.79
62402;BME280;48440;51.224;22.506;2023-05-15T08:37:08;98576.44;;;14.01;70.65
62402;BME280;48440;51.224;22.506;2023-05-15T08:39:34;98573.50;;;13.98;71.01
62402;BME280;48440;51.224;22.506;2023-05-15T08:42:07;98571.69;;;14.07;70.82
62402;BME280;48440;51.224;22.506;2023-05-15T08:44:33;98567.22;;;13.97;70.60
62402;BME280;48440;51.224;22.506;2023-05-15T08:46:59;98569.78;;;13.88;71.39
62402;BME280;48440;51.224;22.506;2023-05-15T08:52:06;98558.47;;;14.00;72.52
62402;BME280;48440;51.224;22.506;2023-05-15T08:54:32;98564.34;;;14.07;71.00
62402;BME280;48440;51.224;22.506;2023-05-15T08:56:58;98559.41;;;14.09;71.06
62402;BME280;48440;51.224;22.506;2023-05-15T08:59:24;98558.88;;;14.07;71.41
62402;BME280;48440;51.224;22.506;2023-05-15T09:01:50;98551.09;;;14.01;72.08
62402;BME280;48440;51.224;22.506;2023-05-15T09:04:15;98544.66;;;14.10;71.14
62402;BME280;48440;51.224;22.506;2023-05-15T09:06:42;98545.16;;;14.12;71.37
62402;BME280;48440;51.224;22.506;2023-05-15T09:09:08;98544.13;;;14.08;71.41
62402;BME280;48440;51.224;22.506;2023-05-15T09:11:42;98527.84;;;14.03;71.12
62402;BME280;48440;51.224;22.506;2023-05-15T09:14:08;98528.97;;;14.02;71.54
62402;BME280;48440;51.224;22.506;2023-05-15T09:16:34;98539.13;;;13.97;71.10
62402;BME280;48440;51.224;22.506;2023-05-15T09:19:00;98542.09;;;14.00;71.26
62402;BME280;48440;51.224;22.506;2023-05-15T09:21:28;98545.91;;;13.99;72.29
62402;BME280;48440;51.224;22.506;2023-05-15T09:24:23;98546.00;;;13.94;72.49
62402;BME280;48440;51.224;22.506;2023-05-15T09:27:06;98547.25;;;14.02;72.83
62402;BME280;48440;51.224;22.506;2023-05-15T09:29:33;98551.59;;;14.03;72.47
62402;BME280;48440;51.224;22.506;2023-05-15T09:32:09;98550.41;;;13.90;72.47
62402;BME280;48440;51.224;22.506;2023-05-15T09:34:37;98544.00;;;14.00;73.22
62402;BME280;48440;51.224;22.506;2023-05-15T09:37:05;98542.91;;;14.01;72.57
62402;BME280;48440;51.224;22.506;2023-05-15T09:39:31;98549.25;;;13.96;73.64
62402;BME280;48440;51.224;22.506;2023-05-15T09:42:07;98550.88;;;13.97;72.70
62402;BME280;48440;51.224;22.506;2023-05-15T09:44:32;98537.97;;;14.03;73.03
62402;BME280;48440;51.224;22.506;2023-05-15T09:47:04;98541.47;;;14.03;72.57
62402;BME280;48440;51.224;22.506;2023-05-15T09:49:30;98536.16;;;14.12;73.11
62402;BME280;48440;51.224;22.506;2023-05-15T09:51:59;98536.16;;;14.12;71.62
62402;BME280;48440;51.224;22.506;2023-05-15T09:54:25;98533.16;;;14.13;72.61
62402;BME280;48440;51.224;22.506;2023-05-15T09:56:52;98523.63;;;14.11;73.10
62402;BME280;48440;51.224;22.506;2023-05-15T09:59:19;98526.13;;;14.07;73.03
62402;BME280;48440;51.224;22.506;2023-05-15T10:01:49;98526.81;;;13.99;74.00
62402;BME280;48440;51.224;22.506;2023-05-15T10:04:16;98520.84;;;13.97;74.07
62402;BME280;48440;51.224;22.506;2023-05-15T10:06:45;98519.47;;;14.00;74.56
62402;BME280;48440;51.224;22.506;2023-05-15T10:09:11;98513.19;;;13.99;74.53
62402;BME280;48440;51.224;22.506;2023-05-15T10:11:40;98508.16;;;14.06;74.28
62402;BME280;48440;51.224;22.506;2023-05-15T10:14:08;98508.75;;;14.03;74.46
62402;BME280;48440;51.224;22.506;2023-05-15T10:16:36;98495.53;;;14.10;74.52
62402;BME280;48440;51.224;22.506;2023-05-15T10:19:04;98508.75;;;14.22;73.90
62402;BME280;48440;51.224;22.506;2023-05-15T10:21:31;98518.91;;;14.16;73.36
62402;BME280;48440;51.224;22.506;2023-05-15T10:23:59;98524.22;;;14.08;74.50
62402;BME280;48440;51.224;22.506;2023-05-15T10:26:40;98535.25;;;14.03;74.87
62402;BME280;48440;51.224;22.506;2023-05-15T10:29:17;98543.84;;;13.91;75.28
62402;BME280;48440;51.224;22.506;2023-05-15T10:31:43;98548.44;;;13.96;75.66
62402;BME280;48440;51.224;22.506;2023-05-15T10:34:09;98547.44;;;13.86;76.40
62402;BME280;48440;51.224;22.506;2023-05-15T10:36:36;98555.19;;;13.79;76.78
62402;BME280;48440;51.224;22.506;2023-05-15T10:39:04;98550.41;;;13.71;76.89
62402;BME280;48440;51.224;22.506;2023-05-15T10:41:32;98543.25;;;13.75;77.16
62402;BME280;48440;51.224;22.506;2023-05-15T10:44:00;98557.19;;;13.74;77.78
62402;BME280;48440;51.224;22.506;2023-05-15T10:46:28;98550.75;;;13.65;79.27
62402;BME280;48440;51.224;22.506;2023-05-15T10:48:54;98546.06;;;13.70;79.04
62402;BME280;48440;51.224;22.506;2023-05-15T10:51:28;98531.38;;;13.66;78.85
62402;BME280;48440;51.224;22.506;2023-05-15T10:53:54;98530.09;;;13.58;79.70
62402;BME280;48440;51.224;22.506;2023-05-15T10:56:33;98533.06;;;13.62;79.33
62402;BME280;48440;51.224;22.506;2023-05-15T10:59:06;98544.78;;;13.63;79.61
62402;BME280;48440;51.224;22.506;2023-05-15T11:01:34;98535.22;;;13.65;79.77
62402;BME280;48440;51.224;22.506;2023-05-15T11:04:11;98524.25;;;13.70;79.74
62402;BME280;48440;51.224;22.506;2023-05-15T11:06:41;98528.41;;;13.63;80.24
62402;BME280;48440;51.224;22.506;2023-05-15T11:09:33;98531.66;;;13.65;79.78
62402;BME280;48440;51.224;22.506;2023-05-15T11:12:00;98548.09;;;13.59;80.31
62402;BME280;48440;51.224;22.506;2023-05-15T11:14:40;98549.41;;;13.62;80.64
62402;BME280;48440;51.224;22.506;2023-05-15T11:17:08;98540.53;;;13.51;80.78
62402;BME280;48440;51.224;22.506;2023-05-15T11:20:17;98551.69;;;13.55;80.83
62402;BME280;48440;51.224;22.506;2023-05-15T11:22:29;98552.72;;;13.59;81.32
62402;BME280;48440;51.224;22.506;2023-05-15T11:25:09;98557.31;;;13.64;81.50
62402;BME280;48440;51.224;22.506;2023-05-15T11:27:41;98567.88;;;13.70;80.72
62402;BME280;48440;51.224;22.506;2023-05-15T11:32:56;98548.53;;;13.67;81.06
62402;BME280;48440;51.224;22.506;2023-05-15T11:35:33;98550.91;;;13.73;80.67
62402;BME280;48440;51.224;22.506;2023-05-15T11:38:03;98564.56;;;13.73;81.03
62402;BME280;48440;51.224;22.506;2023-05-15T11:40:35;98559.75;;;13.65;81.67
62402;BME280;48440;51.224;22.506;2023-05-15T11:43:28;98565.78;;;13.62;82.26
62402;BME280;48440;51.224;22.506;2023-05-15T11:46:06;98570.75;;;13.55;82.42
62402;BME280;48440;51.224;22.506;2023-05-15T11:48:36;98566.06;;;13.61;82.81
62402;BME280;48440;51.224;22.506;2023-05-15T11:51:02;98569.09;;;13.59;83.18
62402;BME280;48440;51.224;22.506;2023-05-15T11:53:29;98555.34;;;13.69;83.15
62402;BME280;48440;51.224;22.506;2023-05-15T11:55:55;98553.41;;;13.70;83.07
62402;BME280;48440;51.224;22.506;2023-05-15T11:58:22;98556.16;;;13.70;83.55
62402;BME280;48440;51.224;22.506;2023-05-15T12:00:51;98561.38;;;13.66;83.36
62402;BME280;48440;51.224;22.506;2023-05-15T12:03:21;98549.34;;;13.67;83.40
62402;BME280;48440;51.224;22.506;2023-05-15T12:05:48;98556.72;;;13.67;83.68
62402;BME280;48440;51.224;22.506;2023-05-15T12:08:13;98545.53;;;13.68;83.07
62402;BME280;48440;51.224;22.506;2023-05-15T12:10:43;98540.81;;;13.74;82.35
62402;BME280;48440;51.224;22.506;2023-05-15T12:13:13;98541.03;;;13.77;82.73
62402;BME280;48440;51.224;22.506;2023-05-15T12:15:41;98544.19;;;13.66;83.59
62402;BME280;48440;51.224;22.506;2023-05-15T12:18:07;98532.47;;;13.65;83.83
62402;BME280;48440;51.224;22.506;2023-05-15T12:20:39;98521.94;;;13.58;83.61
62402;BME280;48440;51.224;22.506;2023-05-15T12:23:09;98522.38;;;13.66;83.98
62402;BME280;48440;51.224;22.506;2023-05-15T12:25:35;98523.13;;;13.71;83.74
62402;BME280;48440;51.224;22.506;2023-05-15T12:28:04;98528.06;;;13.69;83.13
62402;BME280;48440;51.224;22.506;2023-05-15T12:30:31;98517.81;;;13.61;83.04
62402;BME280;48440;51.224;22.506;2023-05-15T12:33:05;98512.66;;;13.59;83.73
62402;BME280;48440;51.224;22.506;2023-05-15T12:35:35;98510.66;;;13.65;83.60
62402;BME280;48440;51.224;22.506;2023-05-15T12:38:06;98519.44;;;13.62;83.50
62402;BME280;48440;51.224;22.506;2023-05-15T12:40:33;98506.31;;;13.64;83.54
62402;BME280;48440;51.224;22.506;2023-05-15T12:43:06;98506.63;;;13.63;83.28
62402;BME280;48440;51.224;22.506;2023-05-15T12:45:32;98496.75;;;13.67;82.99
62402;BME280;48440;51.224;22.506;2023-05-15T12:47:59;98505.22;;;13.65;82.52
62402;BME280;48440;51.224;22.506;2023-05-15T12:50:48;98508.47;;;13.67;83.28
62402;BME280;48440;51.224;22.506;2023-05-15T13:06:25;98485.91;;;13.80;81.95
62402;BME280;48440;51.224;22.506;2023-05-15T13:08:53;98483.47;;;13.79;82.24
62402;BME280;48440;51.224;22.506;2023-05-15T13:11:19;98479.88;;;13.83;82.14
62402;BME280;48440;51.224;22.506;2023-05-15T13:13:45;98482.59;;;13.83;82.27
62402;BME280;48440;51.224;22.506;2023-05-15T13:16:18;98470.81;;;13.88;81.84
62402;BME280;48440;51.224;22.506;2023-05-15T13:18:44;98467.19;;;13.92;81.83
62402;BME280;48440;51.224;22.506;2023-05-15T13:21:09;98462.03;;;13.91;82.09
62402;BME280;48440;51.224;22.506;2023-05-15T13:23:35;98460.94;;;13.92;81.72
62402;BME280;48440;51.224;22.506;2023-05-15T13:26:00;98448.63;;;13.95;81.42
62402;BME280;48440;51.224;22.506;2023-05-15T13:28:26;98451.03;;;13.96;81.18